地図

経路データ

SID SEASON NUMBER BASIN SUBBASIN NAME ISO_TIME NATURE LAT LON WMO_WIND WMO_PRES WMO_AGENCY TRACK_TYPE DIST2LAND LANDFALL IFLAG USA_AGENCY USA_ATCF_ID USA_LAT USA_LON USA_RECORD USA_STATUS USA_WIND USA_PRES USA_SSHS USA_R34_NE USA_R34_SE USA_R34_SW USA_R34_NW USA_R50_NE USA_R50_SE USA_R50_SW USA_R50_NW USA_R64_NE USA_R64_SE USA_R64_SW USA_R64_NW USA_POCI USA_ROCI USA_RMW USA_EYE TOKYO_LAT TOKYO_LON TOKYO_GRADE TOKYO_WIND TOKYO_PRES TOKYO_R50_DIR TOKYO_R50_LONG TOKYO_R50_SHORT TOKYO_R30_DIR TOKYO_R30_LONG TOKYO_R30_SHORT TOKYO_LAND CMA_LAT CMA_LON CMA_CAT CMA_WIND CMA_PRES HKO_LAT HKO_LON HKO_CAT HKO_WIND HKO_PRES NEWDELHI_LAT NEWDELHI_LON NEWDELHI_GRADE NEWDELHI_WIND NEWDELHI_PRES NEWDELHI_CI NEWDELHI_DP NEWDELHI_POCI REUNION_LAT REUNION_LON REUNION_TYPE REUNION_WIND REUNION_PRES REUNION_TNUM REUNION_CI REUNION_RMW REUNION_R34_NE REUNION_R34_SE REUNION_R34_SW REUNION_R34_NW REUNION_R50_NE REUNION_R50_SE REUNION_R50_SW REUNION_R50_NW REUNION_R64_NE REUNION_R64_SE REUNION_R64_SW REUNION_R64_NW BOM_LAT BOM_LON BOM_TYPE BOM_WIND BOM_PRES BOM_TNUM BOM_CI BOM_RMW BOM_R34_NE BOM_R34_SE BOM_R34_SW BOM_R34_NW BOM_R50_NE BOM_R50_SE BOM_R50_SW BOM_R50_NW BOM_R64_NE BOM_R64_SE BOM_R64_SW BOM_R64_NW BOM_ROCI BOM_POCI BOM_EYE BOM_POS_METHOD BOM_PRES_METHOD NADI_LAT NADI_LON NADI_CAT NADI_WIND NADI_PRES WELLINGTON_LAT WELLINGTON_LON WELLINGTON_WIND WELLINGTON_PRES DS824_LAT DS824_LON DS824_STAGE DS824_WIND DS824_PRES TD9636_LAT TD9636_LON TD9636_STAGE TD9636_WIND TD9636_PRES TD9635_LAT TD9635_LON TD9635_WIND TD9635_PRES TD9635_ROCI NEUMANN_LAT NEUMANN_LON NEUMANN_CLASS NEUMANN_WIND NEUMANN_PRES MLC_LAT MLC_LON MLC_CLASS MLC_WIND MLC_PRES USA_GUST BOM_GUST BOM_GUST_PER REUNION_GUST REUNION_GUST_PER USA_SEAHGT USA_SEARAD_NE USA_SEARAD_SE USA_SEARAD_SW USA_SEARAD_NW STORM_SPEED STORM_DIR
2019004N03175 2019 2 WP MM NOT_NAMED 2019-01-04 00:00:00 TS 2.60000 174.800 main 1980 1980 O_____________ jtwc_wp WP012019 2.60000 174.800 TD 25 1002 -1 1007 215 50 2 0
2019004N03175 2019 2 WP MM NOT_NAMED 2019-01-04 03:00:00 TS 2.71250 174.810 main 1987 1987 P_____________ WP012019 2.71250 174.810 TD 25 1002 -1 1007 215 50 2 8
2019004N03175 2019 2 WP MM NOT_NAMED 2019-01-04 06:00:00 TS 2.80000 174.800 main 1994 1994 O_____________ jtwc_wp WP012019 2.80000 174.800 TD 25 1002 -1 1007 215 50 1 338
2019004N03175 2019 2 WP MM NOT_NAMED 2019-01-04 09:00:00 TS 2.85000 174.758 main 2001 1993 P_____________ WP012019 2.85000 174.758 TD 22 1003 -1 1007 215 50 1 317
2019004N03175 2019 2 WP MM NOT_NAMED 2019-01-04 12:00:00 NR 2.90000 174.700 main 1993 1991 O_____________ jtwc_wp WP012019 2.90000 174.700 DB 20 1005 -3 1007 215 50 2 322
2019004N03175 2019 2 WP MM NOT_NAMED 2019-01-04 15:00:00 NR 2.99250 174.643 main 1991 1991 P_____________ WP012019 2.99250 174.643 DB 20 1005 -3 1007 215 50 2 333
2019004N03175 2019 2 WP MM NOT_NAMED 2019-01-04 18:00:00 NR 3.10000 174.600 main 1999 1999 O_____________ jtwc_wp WP012019 3.10000 174.600 DB 20 1005 -3 1007 215 50 2 340
2019004N03175 2019 2 WP MM NOT_NAMED 2019-01-04 21:00:00 NR 3.19250 174.578 main 2006 2006 P_____________ WP012019 3.19250 174.578 DB 20 1005 -3 1007 215 50 2 8
2019004N03175 2019 2 WP MM NOT_NAMED 2019-01-05 00:00:00 NR 3.30000 174.600 main 2014 2014 O_____________ jtwc_wp WP012019 3.30000 174.600 DB 20 1005 -3 1007 215 50 3 26
2019004N03175 2019 2 WP MM NOT_NAMED 2019-01-05 03:00:00 NR 3.45001 174.700 main 2037 2037 P_____________ WP012019 3.45001 174.700 DB 20 1005 -3 1007 215 50 4 33
2019004N03175 2019 2 WP MM NOT_NAMED 2019-01-05 06:00:00 NR 3.60000 174.800 main 2053 2053 O_____________ jtwc_wp WP012019 3.60000 174.800 DB 20 1005 -3 1007 215 50 3 25
2019004N03175 2019 2 WP MM NOT_NAMED 2019-01-05 09:00:00 NR 3.69250 174.815 main 2060 2060 P_____________ WP012019 3.69250 174.815 DB 20 1005 -3 1007 215 50 2 8
2019004N03175 2019 2 WP MM NOT_NAMED 2019-01-05 12:00:00 NR 3.80000 174.800 main 2068 2068 O_____________ jtwc_wp WP012019 3.80000 174.800 DB 20 1006 -3 1007 215 50 3 0
2019004N03175 2019 2 WP MM NOT_NAMED 2019-01-05 15:00:00 NR 3.99250 174.808 main 2083 2083 P_____________ WP012019 3.99250 174.808 DB 20 1006 -3 1007 215 50 4 0
2019004N03175 2019 2 WP MM NOT_NAMED 2019-01-05 18:00:00 NR 4.20000 174.800 main 2098 2098 O_____________ jtwc_wp WP012019 4.20000 174.800 DB 20 1006 -3 1007 215 50 4 354
2019004N03175 2019 2 WP MM NOT_NAMED 2019-01-05 21:00:00 NR 4.35749 174.772 main 2113 2105 P_____________ WP012019 4.35749 174.772 DB 20 1005 -3 1007 215 50 3 343
2019004N03175 2019 2 WP MM NOT_NAMED 2019-01-06 00:00:00 NR 4.50000 174.700 main 2113 2113 O_____________ jtwc_wp WP012019 4.50000 174.700 DB 20 1005 -3 1007 215 50 4 326
2019004N03175 2019 2 WP MM NOT_NAMED 2019-01-06 03:00:00 NR 4.64999 174.580 main 2113 2113 P_____________ WP012019 4.64999 174.580 DB 20 1005 -3 1007 215 50 4 315
2019004N03175 2019 2 WP MM NOT_NAMED 2019-01-06 06:00:00 NR 4.80000 174.400 main 2113 2105 O_____________ jtwc_wp WP012019 4.80000 174.400 DB 20 1005 -3 1007 215 50 5 310
2019004N03175 2019 2 WP MM NOT_NAMED 2019-01-06 09:00:00 NR 4.99500 174.165 main 2113 2098 P_____________ WP012019 4.99500 174.165 DB 17 1006 -3 1007 215 50 6 301
2019004N03175 2019 2 WP MM NOT_NAMED 2019-01-06 12:00:00 NR 5.10000 173.900 main 2098 2067 O_____________ jtwc_wp WP012019 5.10000 173.900 DB 15 1007 -3 1007 215 50 6 269
2019004N03175 2019 2 WP MM NOT_NAMED 2019-01-06 15:00:00 NR 4.98752 173.597 main 2067 2035 P_____________ WP012019 4.98752 173.597 DB 15 1007 -3 1007 215 50 6 239
2019004N03175 2019 2 WP MM NOT_NAMED 2019-01-06 18:00:00 NR 4.80000 173.400 main 2035 2027 O_____________ jtwc_wp WP012019 4.80000 173.400 DB 15 1007 -3 1007 215 50 3 206
2019004N03175 2019 2 WP MM NOT_NAMED 2019-01-06 21:00:00 NR 4.71500 173.463 main 2035 2034 P_____________ WP012019 4.71500 173.463 DB 15 1007 -3 1007 215 50 3 135
2019004N03175 2019 2 WP MM NOT_NAMED 2019-01-07 00:00:00 NR 4.60000 173.600 main 2034 2018 O_____________ jtwc_wp WP012019 4.60000 173.600 DB 15 1007 -3 1007 215 50 4 151
2019004N03175 2019 2 WP MM NOT_NAMED 2019-01-07 03:00:00 NR 4.37999 173.645 main 2018 1995 P_____________ WP012019 4.37999 173.645 DB 15 1007 -3 1007 215 50 5 178
2019004N03175 2019 2 WP MM NOT_NAMED 2019-01-07 06:00:00 NR 4.10000 173.600 main 1995 1963 O_____________ jtwc_wp WP012019 4.10000 173.600 DB 15 1007 -3 1007 215 50 7 197
2019004N03175 2019 2 WP MM NOT_NAMED 2019-01-07 09:00:00 NR 3.75499 173.452 main 1963 1916 P_____________ WP012019 3.75499 173.452 DB 15 1007 -3 1007 177 50 7 214
2019004N03175 2019 2 WP MM NOT_NAMED 2019-01-07 12:00:00 NR 3.50000 173.200 main 1916 1892 O_____________ jtwc_wp WP012019 3.50000 173.200 DB 15 1008 -3 1008 140 50 6 247
2019004N03175 2019 2 WP MM NOT_NAMED 2019-01-07 15:00:00 NR 3.49752 172.858 main 1892 1869 P_____________ WP012019 3.49752 172.858 DB 15 1008 -3 1008 135 40 7 278
2019004N03175 2019 2 WP MM NOT_NAMED 2019-01-07 18:00:00 NR 3.60000 172.500 main 1869 1854 O_____________ jtwc_wp WP012019 3.60000 172.500 DB 15 1008 -3 1008 130 30 6 283
2019004N03175 2019 2 WP MM NOT_NAMED 2019-01-07 21:00:00 NR 3.63497 172.242 main 1846 1839 P_____________ WP012019 3.63497 172.242 DB 15 1008 -3 1008 130 30 5 281
2019004N03175 2019 2 WP MM NOT_NAMED 2019-01-08 00:00:00 NR 3.70000 172.000 main 1839 1825 O_____________ jtwc_wp WP012019 3.70000 172.000 DB 15 1008 -3 1008 130 30 6 292
2019004N03175 2019 2 WP MM NOT_NAMED 2019-01-08 03:00:00 NR 3.84248 171.723 main 1825 1819 P_____________ WP012019 3.84248 171.723 DB 15 1008 -3 1008 130 37 7 297
2019004N03175 2019 2 WP MM NOT_NAMED 2019-01-08 06:00:00 DS 4.00000 171.400 main 1820 1808 O_____________ jtwc_wp WP012019 4.00000 171.400 LO 15 1008 -3 1008 130 45 7 293
2019004N03175 2019 2 WP MM NOT_NAMED 2019-01-08 09:00:00 DS 4.12996 171.038 main 1801 1782 P_____________ WP012019 4.12996 171.038 LO 15 1008 -3 1008 130 45 8 284
2019004N03175 2019 2 WP MM NOT_NAMED 2019-01-08 12:00:00 DS 4.20000 170.600 main 1782 1749 O_____________ jtwc_wp WP012019 4.20000 170.600 LO 15 1008 -3 1008 130 45 10 273
2019004N03175 2019 2 WP MM NOT_NAMED 2019-01-08 15:00:00 DS 4.18749 170.080 main 1749 1701 P_____________ WP012019 4.18749 170.080 LO 15 1007 -3 1007 130 45 11 265
2019004N03175 2019 2 WP MM NOT_NAMED 2019-01-08 18:00:00 DS 4.10000 169.500 main 1701 1655 O_____________ jtwc_wp WP012019 4.10000 169.500 LO 15 1007 -3 1007 130 45 12 261
2019004N03175 2019 2 WP MM NOT_NAMED 2019-01-08 21:00:00 DS 3.99500 168.893 main 1655 1600 P_____________ WP012019 3.99500 168.893 LO 15 1007 -3 1007 130 45 12 256
2019004N03175 2019 2 WP MM NOT_NAMED 2019-01-09 00:00:00 DS 3.80000 168.300 main 1600 1543 O_____________ jtwc_wp WP012019 3.80000 168.300 LO 15 1007 -3 1007 130 45 13 247
2019004N03175 2019 2 WP MM NOT_NAMED 2019-01-09 03:00:00 DS 3.49500 167.740 main 1537 1476 P_____________ WP012019 3.49500 167.740 LO 15 1007 -3 1007 130 45 12 235
2019004N03175 2019 2 WP MM NOT_NAMED 2019-01-09 06:00:00 DS 3.10000 167.300 main 1476 1417 O_____________ jtwc_wp WP012019 3.10000 167.300 LO 15 1007 -3 1007 130 45 11 213
2019004N03175 2019 2 WP MM NOT_NAMED 2019-01-09 09:00:00 DS 2.55241 167.122 main 1417 1367 P_____________ WP012019 2.55241 167.122 LO 15 1007 -3 1007 130 45 10 204
2019004N03175 2019 2 WP MM NOT_NAMED 2019-01-09 12:00:00 DS 2.20000 166.900 main 1367 1345 O_____________ jtwc_wp WP012019 2.20000 166.900 LO 15 1007 -3 1007 130 45 9 257
2019004N03175 2019 2 WP MM NOT_NAMED 2019-01-09 15:00:00 DS 2.35759 166.288 main 1355 1345 P_____________ WP012019 2.35759 166.288 LO 15 1007 -3 1007 130 45 14 295
2019004N03175 2019 2 WP MM NOT_NAMED 2019-01-09 18:00:00 DS 2.80000 165.600 main 1363 1363 O_____________ jtwc_wp WP012019 2.80000 165.600 LO 15 1007 -3 1007 130 45 15 308
2019004N03175 2019 2 WP MM NOT_NAMED 2019-01-09 21:00:00 DS 3.27744 165.120 main 1395 1395 P_____________ WP012019 3.27744 165.120 LO 15 1007 -3 1007 130 45 14 318
2019004N03175 2019 2 WP MM NOT_NAMED 2019-01-10 00:00:00 DS 3.80000 164.700 main 1434 1434 O_____________ jtwc_wp WP012019 3.80000 164.700 LO 15 1007 -3 1007 130 45 13 320
2019004N03175 2019 2 WP MM NOT_NAMED 2019-01-10 03:00:00 DS 4.30242 164.273 main 1471 1466 P_____________ WP012019 4.30242 164.273 LO 15 1006 -3 1006 115 45 13 315
2019004N03175 2019 2 WP MM NOT_NAMED 2019-01-10 06:00:00 DS 4.70000 163.800 main 1490 1485 O_____________ jtwc_wp WP012019 4.70000 163.800 LO 15 1005 -3 1005 100 45 12 300
2019004N03175 2019 2 WP MM NOT_NAMED 2019-01-10 09:00:00 DS 4.90247 163.230 main 1481 1451 P_____________ WP012019 4.90247 163.230 LO 15 1006 -3 1006 145 45 12 284
2019004N03175 2019 2 WP MM NOT_NAMED 2019-01-10 12:00:00 DS 5.00000 162.600 main 1451 1423 O_____________ jtwc_wp WP012019 5.00000 162.600 LO 15 1008 -3 1008 190 45 13 280
2019004N03175 2019 2 WP MM NOT_NAMED 2019-01-10 15:00:00 DS 5.12250 161.943 main 1417 1390 P_____________ WP012019 5.12250 161.943 LO 15 1008 -3 1008 185 37 13 279
2019004N03175 2019 2 WP MM NOT_NAMED 2019-01-10 18:00:00 DS 5.20000 161.300 main 1390 1345 O_____________ jtwc_wp WP012019 5.20000 161.300 LO 15 1008 -3 1008 180 30 12 274
2019004N03175 2019 2 WP MM NOT_NAMED 2019-01-10 21:00:00 DS 5.21498 160.705 main 1345 1310 P_____________ WP012019 5.21498 160.705 LO 15 1007 -3 1007 165 30 11 270
2019004N03175 2019 2 WP MM NOT_NAMED 2019-01-11 00:00:00 DS 5.20000 160.200 main 1310 1282 O_____________ jtwc_wp WP012019 5.20000 160.200 LO 15 1007 -3 1007 150 30 9 269
2019004N03175 2019 2 WP MM NOT_NAMED 2019-01-11 03:00:00 DS 5.19244 159.805 main 1282 1262 P_____________ WP012019 5.19244 159.805 LO 15 1006 -3 1006 130 30 7 270
2019004N03175 2019 2 WP MM NOT_NAMED 2019-01-11 06:00:00 DS 5.20000 159.500 main 1262 1243 O_____________ jtwc_wp WP012019 5.20000 159.500 LO 15 1006 -3 1006 110 30 6 275
2019004N03175 2019 2 WP MM NOT_NAMED 2019-01-11 09:00:00 DS 5.24248 159.228 main 1243 1238 P_____________ WP012019 5.24248 159.228 LO 15 1007 -3 1007 155 40 5 281
2019004N03175 2019 2 WP MM NOT_NAMED 2019-01-11 12:00:00 DS 5.30000 159.000 main 1238 1224 O_____________ jtwc_wp WP012019 5.30000 159.000 LO 15 1008 -3 1008 200 50 5 284
2019004N03175 2019 2 WP MM NOT_NAMED 2019-01-11 15:00:00 DS 5.34999 158.785 main 1224 1220 P_____________ WP012019 5.34999 158.785 LO 15 1007 -3 1007 155 50 4 284
2019004N03175 2019 2 WP MM NOT_NAMED 2019-01-11 18:00:00 DS 5.40000 158.600 main 1220 1207 O_____________ jtwc_wp WP012019 5.40000 158.600 LO 15 1006 -3 1006 110 50 4 286
2019004N03175 2019 2 WP MM NOT_NAMED 2019-01-11 21:00:00 DS 5.45000 158.435 main 1216 1207 P_____________ WP012019 5.45000 158.435 LO 15 1006 -3 1006 110 60 3 289
2019004N03175 2019 2 WP MM NOT_NAMED 2019-01-12 00:00:00 DS 5.50000 158.300 main 1209 1203 O_____________ jtwc_wp WP012019 5.50000 158.300 LO 15 1006 -3 1006 110 70 3 295
2019004N03175 2019 2 WP MM NOT_NAMED 2019-01-12 03:00:00 DS 5.55749 158.200 main 1212 1206 P_____________ WP012019 5.55749 158.200 LO 15 1006 -3 1006 130 70 2 297
2019004N03175 2019 2 WP MM NOT_NAMED 2019-01-12 06:00:00 DS 5.60000 158.100 main 1206 1199 O_____________ jtwc_wp WP012019 5.60000 158.100 LO 15 1006 -3 1006 150 70 2 284
2019004N03175 2019 2 WP MM NOT_NAMED 2019-01-12 09:00:00 DS 5.61499 157.965 main 1199 1187 P_____________ WP012019 5.61499 157.965 LO 15 1008 -3 1006 150 60 3 270
2019004N03175 2019 2 WP MM NOT_NAMED 2019-01-12 12:00:00 DS 5.60000 157.800 main 1187 1175 O_____________ jtwc_wp WP012019 5.60000 157.800 LO 15 1010 -3 1007 150 50 4 261
2019004N03175 2019 2 WP MM NOT_NAMED 2019-01-12 15:00:00 DS 5.55750 157.607 main 1175 1154 P_____________ WP012019 5.55750 157.607 LO 15 1007 -3 1007 150 50 4 256
2019004N03175 2019 2 WP MM NOT_NAMED 2019-01-12 18:00:00 DS 5.50000 157.400 main 1154 1143 O_____________ jtwc_wp WP012019 5.50000 157.400 LO 15 1004 -3 1007 150 50 4 255
2019004N03175 2019 2 WP MM NOT_NAMED 2019-01-12 21:00:00 DS 5.44999 157.200 main 1143 1122 P_____________ WP012019 5.44999 157.200 LO 15 1004 -3 1006 150 50 4 256
2019004N03175 2019 2 WP MM NOT_NAMED 2019-01-13 00:00:00 DS 5.40000 157.000 main 1122 1110 O_____________ jtwc_wp WP012019 5.40000 157.000 LO 15 1004 -3 1006 150 50 4 256
2019004N03175 2019 2 WP MM NOT_NAMED 2019-01-13 03:00:00 DS 5.35748 156.815 main 1110 1089 P_____________ WP012019 5.35748 156.815 LO 15 1007 -3 1005 150 50 4 256
2019004N03175 2019 2 WP MM NOT_NAMED 2019-01-13 06:00:00 DS 5.30000 156.600 main 1089 1062 O_____________ jtwc_wp WP012019 5.30000 156.600 LO 15 1010 -3 1004 150 50 5 254
2019004N03175 2019 2 WP MM NOT_NAMED 2019-01-13 09:00:00 DS 5.21499 156.323 main 1062 1036 P_____________ WP012019 5.21499 156.323 LO 15 1010 -3 1004 150 50 6 252
2019004N03175 2019 2 WP MM NOT_NAMED 2019-01-13 12:00:00 DS 5.10000 156.000 main 1036 1010 O_____________ jtwc_wp WP012019 5.10000 156.000 LO 15 1010 -3 1004 150 50 7 248
2019004N03175 2019 2 WP MM NOT_NAMED 2019-01-13 15:00:00 DS 4.94997 155.673 main 1000 970 P_____________ WP012019 4.94997 155.673 LO 15 1010 -3 1005 150 50 8 247
2019004N03175 2019 2 WP MM NOT_NAMED 2019-01-13 18:00:00 DS 4.80000 155.300 main 970 941 O_____________ jtwc_wp WP012019 4.80000 155.300 LO 15 1010 -3 1007 150 50 9 252
2019004N03175 2019 2 WP MM NOT_NAMED 2019-01-13 21:00:00 DS 4.68501 154.857 main 941 905 P_____________ WP012019 4.68501 154.857 LO 15 1010 -3 1007 150 50 9 257
2019004N03175 2019 2 WP MM NOT_NAMED 2019-01-14 00:00:00 DS 4.60000 154.400 main 905 877 O_____________ jtwc_wp WP012019 4.60000 154.400 LO 15 1010 -3 1007 150 50 9 260
2019004N03175 2019 2 WP MM NOT_NAMED 2019-01-14 03:00:00 DS 4.53499 153.978 main 877 860 P_____________ WP012019 4.53499 153.978 LO 15 1006 -3 1005 150 50 8 263
2019004N03175 2019 2 WP MM NOT_NAMED 2019-01-14 06:00:00 DS 4.50000 153.600 main 860 849 O_____________ jtwc_wp WP012019 4.50000 153.600 LO 15 1002 -3 1004 150 50 7 267
2019004N03175 2019 2 WP MM NOT_NAMED 2019-01-14 09:00:00 DS 4.49248 153.278 main 849 840 P_____________ WP012019 4.49248 153.278 LO 15 1002 -3 1004 150 50 6 270
2019004N03175 2019 2 WP MM NOT_NAMED 2019-01-14 12:00:00 DS 4.50000 153.000 main 840 831 O_____________ jtwc_wp WP012019 4.50000 153.000 LO 15 1002 -3 1004 150 50 5 272
2019004N03175 2019 2 WP MM NOT_NAMED 2019-01-14 15:00:00 DS 4.50749 152.735 main 831 826 P_____________ WP012019 4.50749 152.735 LO 15 1002 -3 1004 185 50 5 270
2019004N03175 2019 2 WP MM NOT_NAMED 2019-01-14 18:00:00 DS 4.50000 152.500 main 826 821 O_____________ jtwc_wp WP012019 4.50000 152.500 LO 15 1003 -3 1005 220 50 4 264
2019004N03175 2019 2 WP MM NOT_NAMED 2019-01-14 21:00:00 DS 4.46498 152.300 main 821 806 P_____________ WP012019 4.46498 152.300 LO 15 1004 -3 1005 167 50 4 256
2019004N03175 2019 2 WP MM NOT_NAMED 2019-01-15 00:00:00 DS 4.40000 152.100 main 806 792 O_____________ jtwc_wp WP012019 4.40000 152.100 LO 15 1006 -3 1006 115 50 5 250
2019004N03175 2019 2 WP MM NOT_NAMED 2019-01-15 03:00:00 DS 4.30749 151.865 main 792 777 P_____________ WP012019 4.30749 151.865 LO 15 1006 -3 1006 120 42 5 248
2019004N03175 2019 2 WP MM NOT_NAMED 2019-01-15 06:00:00 DS 4.20000 151.600 main 777 763 O_____________ jtwc_wp WP012019 4.20000 151.600 LO 15 1006 -3 1006 125 35 6 247
2019004N03175 2019 2 WP MM NOT_NAMED 2019-01-15 09:00:00 DS 4.07749 151.315 main 763 750 P_____________ WP012019 4.07749 151.315 LO 15 1006 -3 1006 125 35 6 252
2019004N03175 2019 2 WP MM NOT_NAMED 2019-01-15 12:00:00 DS 4.00000 151.000 main 750 750 O_____________ jtwc_wp WP012019 4.00000 151.000 LO 15 1006 -3 1006 125 35 6 266
2019004N03175 2019 2 WP MM NOT_NAMED 2019-01-15 15:00:00 DS 4.03497 150.673 main 751 751 P_____________ WP012019 4.03497 150.673 LO 15 1005 -3 1005 127 37 7 278
2019004N03175 2019 2 WP MM NOT_NAMED 2019-01-15 18:00:00 DS 4.10000 150.300 main 764 748 O_____________ jtwc_wp WP012019 4.10000 150.300 LO 15 1005 -3 1005 130 40 8 274
2019004N03175 2019 2 WP MM NOT_NAMED 2019-01-15 21:00:00 DS 4.08494 149.895 main 748 729 P_____________ WP012019 4.08494 149.895 LO 15 1005 -3 1005 130 40 9 270
2019004N03175 2019 2 WP MM NOT_NAMED 2019-01-16 00:00:00 DS 4.10000 149.400 main 729 714 O_____________ jtwc_wp WP012019 4.10000 149.400 LO 15 1006 -3 1006 130 40 11 275
2019004N03175 2019 2 WP MM NOT_NAMED 2019-01-16 03:00:00 DS 4.18257 148.757 main 722 716 P_____________ WP012019 4.18257 148.757 LO 15 1006 -3 1006 145 35 13 283
2019004N03175 2019 2 WP MM NOT_NAMED 2019-01-16 06:00:00 DS 4.40000 148.100 main 732 731 O_____________ jtwc_wp WP012019 4.40000 148.100 LO 15 1006 -3 1006 160 30 13 299
2019004N03175 2019 2 WP MM NOT_NAMED 2019-01-16 09:00:00 DS 4.82740 147.585 main 773 773 P_____________ WP012019 4.82740 147.585 LO 15 1006 -3 1006 167 30 13 312
2019004N03175 2019 2 WP MM NOT_NAMED 2019-01-16 12:00:00 DS 5.30000 147.100 main 829 829 O_____________ jtwc_wp WP012019 5.30000 147.100 LO 15 1006 -3 1006 175 30 13 310
2019004N03175 2019 2 WP MM NOT_NAMED 2019-01-16 15:00:00 DS 5.66739 146.580 main 874 874 P_____________ WP012019 5.66739 146.580 LO 15 1006 -3 1006 175 30 13 299
2019004N03175 2019 2 WP MM NOT_NAMED 2019-01-16 18:00:00 DS 5.90000 146.000 main 898 898 O_____________ jtwc_wp WP012019 5.90000 146.000 LO 15 1006 -3 1006 175 30 13 282
2019004N03175 2019 2 WP MM NOT_NAMED 2019-01-16 21:00:00 DS 5.92999 145.322 main 908 908 P_____________ WP012019 5.92999 145.322 LO 15 1006 -3 1006 175 30 14 270
2019004N03175 2019 2 WP MM NOT_NAMED 2019-01-17 00:00:00 DS 5.90000 144.600 main 923 923 O_____________ jtwc_wp WP012019 5.90000 144.600 LO 15 1007 -3 1007 175 30 14 272
2019004N03175 2019 2 WP MM NOT_NAMED 2019-01-17 03:00:00 DS 5.98488 143.908 main 956 956 P_____________ WP012019 5.98488 143.908 LO 15 1006 -3 1006 175 40 14 278
2019004N03175 2019 2 WP MM NOT_NAMED 2019-01-17 06:00:00 DS 6.10000 143.200 main 993 991 O_____________ jtwc_wp WP012019 6.10000 143.200 LO 15 1005 -3 1005 175 50 15 279
2019004N03175 2019 2 WP MM NOT_NAMED 2019-01-17 09:00:00 DS 6.21493 142.458 main 991 966 P_____________ WP012019 6.21493 142.458 LO 15 1005 -3 1005 175 50 15 278
2019004N03175 2019 2 WP MM NOT_NAMED 2019-01-17 12:00:00 DS 6.30000 141.700 main 966 938 O_____________ jtwc_wp WP012019 6.30000 141.700 LO 15 1005 -3 1005 175 50 15 273
2019004N03175 2019 2 WP MM NOT_NAMED 2019-01-17 15:00:00 DS 6.30745 140.935 main 934 912 P_____________ WP012019 6.30745 140.935 LO 17 1005 -3 1005 172 50 15 270
2019004N03175 2019 2 WP MM NOT_NAMED 2019-01-17 18:00:00 NR 6.30000 140.200 main 912 890 O_____________ jtwc_wp WP012019 6.30000 140.200 DB 20 1005 -3 1005 170 50 14 271
2019004N03175 2019 2 WP MM NOT_NAMED 2019-01-17 21:00:00 NR 6.33500 139.490 main 890 890 P_____________ WP012019 6.33500 139.490 DB 20 1004 -3 1006 185 55 8 292
2019004N03175 2019 2 WP MM NOT_NAMED 2019-01-18 00:00:00 TS 6.60000 139.440 main 915 915 O_O___________ jtwc_wp WP012019 6.40000 138.900 DB 20 1003 -3 1007 200 60 7.40000 141.600 0 19 1006 5 317
2019004N03175 2019 2 WP MM NOT_NAMED 2019-01-18 03:00:00 TS 6.67095 139.177 main 916 900 P_P___________ WP012019 6.48489 138.482 DB 20 1004 -3 1007 175 47 7.04307 140.567 0 22 1005 6 278
2019004N03175 2019 2 WP MM NOT_NAMED 2019-01-18 06:00:00 TS 6.68571 138.800 main 900 885 O_O___________ jtwc_wp WP012019 6.60000 138.200 DB 20 1005 -3 1007 150 35 6.80000 139.600 1 25 1005 8 276
2019004N03175 2019 2 WP MM NOT_NAMED 2019-01-18 09:00:00 TS 6.75225 138.390 main 895 878 P_P___________ WP012019 6.75731 138.045 DB 20 1004 -3 1006 142 42 6.74719 138.735 1 25 1005 10 280
2019004N03175 2019 2 WP MM NOT_NAMED 2019-01-18 12:00:00 TS 6.85000 137.850 main 889 870 O_O___________ jtwc_wp WP012019 6.90000 137.800 DB 20 1004 -3 1006 135 50 6.80000 137.900 1 25 1005 13 278
2019004N03175 2019 2 WP MM NOT_NAMED 2019-01-18 15:00:00 TS 6.92993 137.128 main 867 863 P_P___________ WP012019 7.00240 137.263 DB 20 1004 -3 1006 140 50 6.85745 136.993 1 25 1005 15 274
2019004N03175 2019 2 WP MM NOT_NAMED 2019-01-18 18:00:00 TS 6.95000 136.300 main 866 840 O_O___________ jtwc_wp WP012019 7.00000 136.500 DB 20 1004 -3 1006 145 50 6.90000 136.100 1 25 1005 17 267
2019004N03175 2019 2 WP MM NOT_NAMED 2019-01-18 21:00:00 TS 6.83599 135.470 main 840 806 P_P___________ WP012019 6.81486 135.625 DB 20 1004 -3 1006 147 50 6.85713 135.315 1 25 1005 18 262
2019004N03175 2019 2 WP MM NOT_NAMED 2019-01-19 00:00:00 TS 6.70000 134.550 main 806 703 O_O___________ jtwc_wp WP012019 6.60000 134.600 DB 20 1005 -3 1007 150 50 6.80000 134.500 1 25 1005 20 264
2019004N03175 2019 2 WP MM NOT_NAMED 2019-01-19 03:00:00 TS 6.63014 133.471 main 703 623 P_P___________ WP012019 6.48286 133.405 DB 20 1005 -3 1007 150 50 6.77742 133.537 1 25 1005 21 269
2019004N03175 2019 2 WP MM NOT_NAMED 2019-01-19 06:00:00 TS 6.65000 132.400 main 624 555 O_O___________ jtwc_wp WP012019 6.50000 132.300 DB 20 1005 -3 1007 150 50 6.80000 132.500 1 25 1005 20 275
2019004N03175 2019 2 WP MM NOT_NAMED 2019-01-19 09:00:00 TS 6.79473 131.509 main 544 454 P_P___________ WP012019 6.71204 131.575 DB 20 1005 -3 1007 155 45 6.87742 131.443 1 25 1005 17 282
2019004N03175 2019 2 WP MM NOT_NAMED 2019-01-19 12:00:00 TS 7.00000 130.700 main 454 364 O_O___________ jtwc_wp WP012019 7.00000 131.000 DB 20 1005 -3 1007 160 40 7.00000 130.400 1 25 1005 17 283
2019004N03175 2019 2 WP MM NOT_NAMED 2019-01-19 15:00:00 TS 7.17116 129.874 main 364 275 P_P___________ WP012019 7.21487 130.357 DB 20 1004 -3 1006 150 40 7.12745 129.390 1 25 1005 16 282
2019004N03175 2019 2 WP MM NOT_NAMED 2019-01-19 18:00:00 TS 7.35000 129.100 main 275 198 O_O___________ jtwc_wp WP012019 7.40000 129.700 DB 20 1004 -3 1006 140 40 7.30000 128.500 1 25 1005 15 282
2019004N03175 2019 2 WP MM NOT_NAMED 2019-01-19 21:00:00 TS 7.49749 128.354 main 198 132 P_P___________ WP012019 7.49759 128.970 DB 20 1005 -3 1007 157 40 7.49740 127.738 1 25 1005 14 287
2019004N03175 2019 2 WP MM NOT_NAMED 2019-01-20 00:00:00 TS 7.75000 127.750 main 132 98 O_O___________ jtwc_wp WP012019 7.70000 128.300 DB 20 1006 -3 1008 175 40 7.80000 127.200 1 25 1005 12 307
2019004N03175 2019 2 WP MM NOT_NAMED 2019-01-20 03:00:00 TS 8.23735 127.350 main 104 87 P_P___________ WP012019 8.20486 127.798 DB 20 1006 -3 1008 167 42 8.26984 126.902 1 25 1005 12 329
2019004N03175 2019 2 WP MM NOT_NAMED 2019-01-20 06:00:00 TS 8.80000 127.100 main 87 74 O_O___________ jtwc_wp WP012019 8.80000 127.400 DB 20 1006 -3 1008 160 45 8.80000 126.800 1 25 1005 11 336
2019004N03175 2019 2 WP MM NOT_NAMED 2019-01-20 09:00:00 TS 9.27248 126.880 main 77 69 P_P___________ WP012019 9.28749 126.998 DB 20 1005 -3 1007 150 45 9.25748 126.762 1 27 1005 10 339
2019004N03175 2019 2 WP MM NOT_NAMED 2019-01-20 12:00:00 TS 9.70000 126.750 main 86 78 O_O___________ jtwc_wp WP012019 9.70000 126.700 DB 20 1005 -3 1007 140 45 9.70000 126.800 1 29 1005 8 348
2019004N03175 2019 2 WP MM NOT_NAMED 2019-01-20 15:00:00 TS 10.0937 126.706 main 102 102 P_P___________ WP012019 10.0224 126.555 DB 20 1005 -3 1007 147 45 10.1650 126.857 1 29 1005 8 356
2019004N03175 2019 2 WP MM NOT_NAMED 2019-01-20 18:00:00 TS 10.4500 126.700 main 113 100 O_O___________ jtwc_wp WP012019 10.3000 126.500 DB 20 1006 -3 1008 155 45 10.6000 126.900 1 29 1005 7 357
2019004N03175 2019 2 WP MM NOT_NAMED 2019-01-20 21:00:00 TS 10.7825 126.669 main 100 87 P_P___________ WP012019 10.5925 126.442 DB 20 1005 -3 1007 122 45 10.9725 126.895 1 29 1005 7 351
2019004N03175 2019 2 WP MM NOT_NAMED 2019-01-21 00:00:00 TS 11.1000 126.600 main 88 79 O_O___________ jtwc_wp WP012019 10.9000 126.400 DB 20 1005 -3 1007 90 45 11.3000 126.800 1 29 1005 7 343
2019004N03175 2019 2 WP MM NOT_NAMED 2019-01-21 03:00:00 TS 11.4213 126.469 main 88 83 P_P___________ WP012019 11.2200 126.350 DB 22 1004 -3 1007 90 45 11.6225 126.588 1 29 1005 7 336
2019004N03175 2019 2 WP MM NOT_NAMED 2019-01-21 06:00:00 TS 11.7500 126.300 main 87 66 O_O___________ jtwc_wp WP012019 11.6000 126.300 TD 25 1004 -1 1007 90 45 11.9000 126.300 1 29 1005 8 334
2019004N03175 2019 2 WP MM NOT_NAMED 2019-01-21 09:00:00 TS 12.1225 126.118 main 66 55 P_P___________ WP012019 12.1150 126.243 TD 27 1003 -1 1007 90 45 12.1300 125.993 1 27 1005 8 334
2019004N03175 2019 2 WP MM NOT_NAMED 2019-01-21 12:00:00 TS 12.4500 125.950 main 63 54 O_O___________ jtwc_wp WP012019 12.6000 126.200 TD 30 1003 -1 1007 90 45 12.3000 125.700 1 25 1006 6 335
2019004N03175 2019 2 WP MM NOT_NAMED 2019-01-21 15:00:00 TS 12.6625 125.854 main 70 63 P_P___________ WP012019 12.9100 126.215 TD 27 1004 -1 1007 90 45 12.4149 125.492 1 25 1006 4 341
2019004N03175 2019 2 WP MM NOT_NAMED 2019-01-21 18:00:00 TS 12.8429 125.814 main 70 70 O_O___________ jtwc_wp WP012019 13.1000 126.200 TD 25 1005 -1 1007 90 45 12.5000 125.300 1 25 1006 4 343
2019004N03175 2019 2 WP MM NOT_NAMED 2019-01-21 21:00:00 TS 13.0584 125.732 main 86 86 P_P___________ WP012019 13.2900 126.065 TD 22 1006 -1 1007 85 45 12.5951 125.065 1 25 1006 4 338
2019004N03175 2019 2 WP MM NOT_NAMED 2019-01-22 00:00:00 TS 13.1800 125.680 main 95 85 O_O___________ jtwc_wp WP012019 13.3000 125.900 DB 20 1007 -3 1008 80 45 12.7000 124.800 1 25 1006 1 150
2019004N03175 2019 2 WP MM NOT_NAMED 2019-01-22 03:00:00 NR 13.0100 125.777 main 85 48 P_____________ WP012019 13.0100 125.777 DB 20 1006 -3 1008 80 45 1 6 179
2019004N03175 2019 2 WP MM NOT_NAMED 2019-01-22 06:00:00 NR 12.6000 125.700 main 48 24 O_____________ jtwc_wp WP012019 12.6000 125.700 DB 20 1006 -3 1008 80 45 8 187
2019004N03175 2019 2 WP MM NOT_NAMED 2019-01-22 09:00:00 NR 12.2675 125.683 main 24 21 P_____________ WP012019 12.2675 125.683 DB 17 1006 -3 1007 95 50 6 179
2019004N03175 2019 2 WP MM NOT_NAMED 2019-01-22 12:00:00 NR 12.0000 125.700 main 31 O_____________ jtwc_wp WP012019 12.0000 125.700 DB 15 1007 -3 1007 110 55 5 175

デジタル台風データ・検索

IBTrACS Databaseについて

本データベースは、米国NOAAが公開する1842年以降の世界の熱帯低気圧のベストトラックデータアーカイブInternational Best Track Archive for Climate Stewardship (IBTrACS)を、ウェブで閲覧しやすい形式に変換したものです。

最終更新日:2021-10-08